KINL/INL METAR and TAF weather

Enter ICAO airport designator
Station Type Date Time Source
KINL METAR 2019/06/27 08:55 UTC NOAA

KINL 270855Z AUTO 00000KT 10SM CLR 09/09 A3003 RMK AO2 SLP169 T00890089 50008


Station Type Date Time Source
KINL Decoded METAR 2019/06/27 08:55 UTC NOAA

FALLS INTERNATIONAL AIRPORT , MN, United States (KINL) 48-34N 093-24W 360M
Jun 27, 2019 - 04:55 AM EDT / 2019.06.27 0855 UTC
Wind: Calm:0
Visibility: 10 mile(s):0
Sky conditions: clear
Temperature: 48.0 F (8.9 C)
Dew Point: 48.0 F (8.9 C)
Relative Humidity: 100%
Pressure (altimeter): 30.03 in. Hg (1016 hPa)
Pressure tendency: 0.02 inches (0.8 hPa) higher than three hours ago
ob: KINL 270855Z AUTO 00000KT 10SM CLR 09/09 A3003 RMK AO2 SLP169 T00890089 50008
cycle: 9

Station Type Date Time Source
KINL TAF 2019/06/27 06:36 UTC NOAA

TAF KINL 270535Z 2706/2806 VRB03KT P6SM SKC
FM271500 07005KT P6SM BKN250
FM280000 VRB03KT P6SM SCT250

Example: see airport list